Horton, Michigan
Current Conditions -  °F | °C
As of 6:56 AM on Monday 26 Jan 2015 (Local Time) from KJXN Reporting Station
Clear Clear  
Wind Chill: -18°   Ceiling: Unl
Heat Index: -13°   Visibility: 10mi
Dew Point: -15°   Wind: 5mph
Humidity: 87%   Direction: 20°NNE
Pressure: 29.91"   Gusts: NA
Location:  42.15°N, 84.52°W
Report Text: KJXN 261156Z 02004KT 10SM CLR M13/M15 A2991 RMK AO2 SLP148 I1000 I6000 T11331150 11094 21133 55007
Loading
Personal Weather Stations






























Interactive Weather Map New forecast layout! Learn more

10-Day Weather Forecast

Advertisements
Track Severe Weather on mobile